Southern Lily — 9VJK4 — position and weather

sailwx.info

Track history (hours):
 
Tides and Currents Weather Stations Pressure Air Temp Water Temp Dewpoint Dewpoint Depression Visibility Wind Speed Wind Dir Waves Ship Positions

Southern Lily

Last reported at 2018-Feb-09 10:30 UTC. Time now 2018-Feb-21 01:48 UTC.
Position S 36°21' E 174°59'.
Warning: this ship's position is 11 days out of date.

Length 146 m; draft 8.1 m.

Type: Ship (hazmat cat D). MMSI: 565050000.

Date/timePositionNaut miles runAvg speedWind from/ knotsBaromVisibWave heightAir tempDewpointWater temp
2018-Feb-09 10:30S 36°21' E 174°59'4 8.1
2018-Feb-09 10:00S 36°25' E 174°60'4 7.8
2018-Feb-09 09:30S 36°28' E 174°60'12 7.8
2018-Feb-09 08:00S 36°39' E 174°55'4 8.0
2018-Feb-09 07:30S 36°43' E 174°52'4 8.1
2018-Feb-09 07:00S 36°46' E 174°49'5 0.2
2018-Feb-08 01:27S 36°51' E 174°47'0 0.0
2018-Feb-08 00:45S 36°51' E 174°47'0 0.0
2018-Feb-08 00:27S 36°51' E 174°47'0 0.0
2018-Feb-07 23:57S 36°51' E 174°47'0 0.0
2018-Feb-07 23:27S 36°51' E 174°47'0 0.0
2018-Feb-07 22:57S 36°51' E 174°47'0 0.0
2018-Feb-07 22:27S 36°51' E 174°47'0 0.0
2018-Feb-07 21:57S 36°51' E 174°47'0 0.0
2018-Feb-07 21:15S 36°51' E 174°47'29 2.5
2018-Feb-07 09:30S 36°23' E 174°59'4 7.5
2018-Feb-07 09:00S 36°19' E 174°59'4 7.6
2018-Feb-07 08:30S 36°15' E 174°58'  
Track history (hours):
 
Tides and Currents Weather Stations Pressure Air Temp Water Temp Dewpoint Dewpoint Depression Visibility Wind Speed Wind Dir Waves Ship Positions

Southern Lily

Last reported at 2018-Feb-09 10:30 UTC. Time now 2018-Feb-21 01:48 UTC.
Position S 36°21' E 174°59'.
Warning: this ship's position is 11 days out of date.

Length 146 m; draft 8.1 m.

Type: Ship (hazmat cat D). MMSI: 565050000.

Date/timePositionNaut miles runAvg speedWind from/ knotsBaromVisibWave heightAir tempDewpointWater temp
2018-Feb-09 10:30S 36°21' E 174°59'4 8.1
2018-Feb-09 10:00S 36°25' E 174°60'4 7.8
2018-Feb-09 09:30S 36°28' E 174°60'12 7.8
2018-Feb-09 08:00S 36°39' E 174°55'4 8.0
2018-Feb-09 07:30S 36°43' E 174°52'4 8.1
2018-Feb-09 07:00S 36°46' E 174°49'5 0.2
2018-Feb-08 01:27S 36°51' E 174°47'0 0.0
2018-Feb-08 00:45S 36°51' E 174°47'0 0.0
2018-Feb-08 00:27S 36°51' E 174°47'0 0.0
2018-Feb-07 23:57S 36°51' E 174°47'0 0.0
2018-Feb-07 23:27S 36°51' E 174°47'0 0.0
2018-Feb-07 22:57S 36°51' E 174°47'0 0.0
2018-Feb-07 22:27S 36°51' E 174°47'0 0.0
2018-Feb-07 21:57S 36°51' E 174°47'0 0.0
2018-Feb-07 21:15S 36°51' E 174°47'29 2.5
2018-Feb-07 09:30S 36°23' E 174°59'4 7.5
2018-Feb-07 09:00S 36°19' E 174°59'4 7.6
2018-Feb-07 08:30S 36°15' E 174°58'  

Dump ship's entire track history